createdAt,value
2018-08-12T00:00:16.613Z,10.85
2018-08-12T00:03:19.058Z,10.80
2018-08-12T00:06:21.304Z,10.72
2018-08-12T00:09:23.688Z,10.65
2018-08-12T00:12:26.064Z,10.50
2018-08-12T00:15:28.452Z,10.43
2018-08-12T00:18:30.740Z,10.44
2018-08-12T00:21:33.060Z,10.16
2018-08-12T00:24:35.355Z,9.74
2018-08-12T00:27:37.748Z,9.66
2018-08-12T00:30:40.010Z,9.69
2018-08-12T00:33:42.402Z,9.85
2018-08-12T00:36:44.675Z,9.94
2018-08-12T00:39:47.127Z,10.07
2018-08-12T00:42:49.406Z,10.04
2018-08-12T00:45:51.701Z,10.00
2018-08-12T00:48:53.908Z,9.98
2018-08-12T00:51:56.309Z,9.99
2018-08-12T00:54:58.611Z,10.00
2018-08-12T00:58:01.958Z,10.01
2018-08-12T01:01:04.300Z,10.01
2018-08-12T01:04:06.647Z,10.15
2018-08-12T01:07:08.957Z,10.19
2018-08-12T01:10:11.801Z,10.14
2018-08-12T01:13:14.014Z,10.11
2018-08-12T01:16:16.234Z,10.05
2018-08-12T01:19:19.817Z,10.00
2018-08-12T01:22:22.134Z,9.95
2018-08-12T01:25:24.451Z,9.93
2018-08-12T01:28:26.910Z,9.97
2018-08-12T01:31:29.167Z,9.96
2018-08-12T01:34:31.396Z,9.82
2018-08-12T01:37:33.625Z,9.55
2018-08-12T01:40:35.814Z,9.20
2018-08-12T01:43:38.163Z,9.21
2018-08-12T01:46:40.447Z,9.22
2018-08-12T01:49:42.703Z,9.29
2018-08-12T01:52:44.966Z,9.29
2018-08-12T01:55:47.152Z,9.34
2018-08-12T01:58:49.464Z,9.33
2018-08-12T02:01:51.898Z,9.33
2018-08-12T02:04:54.084Z,9.37
2018-08-12T02:07:56.472Z,9.25
2018-08-12T02:10:58.829Z,9.20
2018-08-12T02:14:01.073Z,9.24
2018-08-12T02:17:03.403Z,9.30
2018-08-12T02:20:06.105Z,9.36
2018-08-12T02:23:09.223Z,9.33
2018-08-12T02:26:11.603Z,9.32
2018-08-12T02:29:13.918Z,9.35
2018-08-12T02:32:16.207Z,9.32
2018-08-12T02:35:18.541Z,9.32
2018-08-12T02:38:20.896Z,9.18
2018-08-12T02:41:23.186Z,9.07
2018-08-12T02:44:25.539Z,9.04
2018-08-12T02:47:29.044Z,9.09
2018-08-12T02:50:32.331Z,8.99
2018-08-12T02:53:34.712Z,8.99
2018-08-12T02:56:37.038Z,8.96
2018-08-12T02:59:39.508Z,8.89
2018-08-12T03:02:41.755Z,8.86
2018-08-12T03:05:44.091Z,8.81
2018-08-12T03:08:46.353Z,8.72
2018-08-12T03:11:48.567Z,8.69
2018-08-12T03:14:50.889Z,8.67
2018-08-12T03:17:53.202Z,8.73
2018-08-12T03:20:55.547Z,8.76
2018-08-12T03:23:58.162Z,8.75
2018-08-12T03:27:00.477Z,8.53
2018-08-12T03:30:02.893Z,8.47
2018-08-12T03:33:05.461Z,8.41
2018-08-12T03:36:07.764Z,8.40
2018-08-12T03:39:11.276Z,8.40
2018-08-12T03:42:13.625Z,8.44
2018-08-12T03:45:15.844Z,8.53
2018-08-12T03:48:18.233Z,8.46
2018-08-12T03:51:20.471Z,8.47
2018-08-12T03:54:22.831Z,8.55
2018-08-12T03:57:25.151Z,8.60
2018-08-12T04:00:27.436Z,8.65
2018-08-12T04:03:30.007Z,8.68
2018-08-12T04:06:32.288Z,8.69
2018-08-12T04:09:34.949Z,8.66
2018-08-12T04:12:37.550Z,8.66
2018-08-12T04:15:39.795Z,8.71
2018-08-12T04:18:42.157Z,8.68
2018-08-12T04:21:44.439Z,8.69
2018-08-12T04:24:46.662Z,8.69
2018-08-12T04:27:48.891Z,8.59
2018-08-12T04:30:51.121Z,8.63
2018-08-12T04:33:53.392Z,8.68
2018-08-12T04:36:55.644Z,8.69
2018-08-12T04:39:57.852Z,8.91
2018-08-12T04:43:00.145Z,9.10
2018-08-12T04:46:02.496Z,9.30
2018-08-12T04:49:04.980Z,9.77
2018-08-12T04:52:07.238Z,12.07
2018-08-12T04:55:09.445Z,14.28
2018-08-12T04:58:11.740Z,14.18
2018-08-12T05:01:13.990Z,14.91
2018-08-12T05:04:16.173Z,15.87
2018-08-12T05:07:18.370Z,17.06
2018-08-12T05:10:20.730Z,18.03
2018-08-12T05:13:23.166Z,18.44
2018-08-12T05:16:25.381Z,17.98
2018-08-12T05:19:27.691Z,17.34
2018-08-12T05:22:30.022Z,19.27
2018-08-12T05:25:32.525Z,20.29
2018-08-12T05:28:34.886Z,20.98
2018-08-12T05:31:37.203Z,21.45
2018-08-12T05:34:39.421Z,22.42
2018-08-12T05:37:42.315Z,23.13
2018-08-12T05:40:45.072Z,22.78
2018-08-12T05:43:47.990Z,22.38
2018-08-12T05:46:50.281Z,22.28
2018-08-12T05:49:53.535Z,21.26
2018-08-12T05:52:55.827Z,21.10
2018-08-12T05:55:58.058Z,21.64
2018-08-12T05:59:00.305Z,22.62
2018-08-12T06:02:02.697Z,22.71
2018-08-12T06:05:05.600Z,22.98
2018-08-12T06:08:07.970Z,21.73
2018-08-12T06:11:10.290Z,22.38
2018-08-12T06:14:13.717Z,22.71
2018-08-12T06:17:15.980Z,21.70
2018-08-12T06:20:18.300Z,21.95
2018-08-12T06:23:20.559Z,20.93
2018-08-12T06:26:22.901Z,19.93
2018-08-12T06:29:25.189Z,19.58
2018-08-12T06:32:27.389Z,19.85
2018-08-12T06:35:29.669Z,20.86
2018-08-12T06:38:32.589Z,20.72
2018-08-12T06:41:34.805Z,20.47
2018-08-12T06:44:37.132Z,21.89
2018-08-12T06:47:39.939Z,22.51
2018-08-12T06:50:42.232Z,22.55
2018-08-12T06:53:44.591Z,22.87
2018-08-12T06:56:46.782Z,23.89
2018-08-12T06:59:49.080Z,24.04
2018-08-12T07:02:51.358Z,24.98
2018-08-12T07:05:53.670Z,26.44
2018-08-12T07:08:55.973Z,27.34
2018-08-12T07:11:58.202Z,27.01
2018-08-12T07:15:00.469Z,25.96
2018-08-12T07:18:02.867Z,26.44
2018-08-12T07:21:05.235Z,26.02
2018-08-12T07:24:07.508Z,25.72
2018-08-12T07:27:09.768Z,25.35
2018-08-12T07:30:13.558Z,25.73
2018-08-12T07:33:15.892Z,24.80
2018-08-12T07:36:18.812Z,23.71
2018-08-12T07:39:21.025Z,24.30
2018-08-12T07:42:23.180Z,24.54
2018-08-12T07:45:25.490Z,24.49
2018-08-12T07:48:27.835Z,23.93
2018-08-12T07:51:30.116Z,24.89
2018-08-12T07:54:32.336Z,22.59
2018-08-12T07:57:34.672Z,23.05
2018-08-12T08:00:36.974Z,22.57
2018-08-12T08:03:39.180Z,22.19
2018-08-12T08:06:41.413Z,20.88
2018-08-12T08:09:43.611Z,20.33
2018-08-12T08:12:46.002Z,20.13
2018-08-12T08:15:48.333Z,20.30
2018-08-12T08:18:50.584Z,20.92
2018-08-12T08:21:52.867Z,20.73
2018-08-12T08:24:55.149Z,20.37
2018-08-12T08:27:57.342Z,20.14
2018-08-12T08:30:59.738Z,20.21
2018-08-12T08:34:01.973Z,20.58
2018-08-12T08:37:04.228Z,20.83
2018-08-12T08:40:08.740Z,21.08
2018-08-12T08:43:10.990Z,21.23
2018-08-12T08:46:13.461Z,21.62
2018-08-12T08:49:15.725Z,22.05
2018-08-12T08:52:22.165Z,22.47
2018-08-12T08:55:25.529Z,22.61
2018-08-12T08:58:27.776Z,22.69
2018-08-12T09:01:30.228Z,23.20
2018-08-12T09:04:32.398Z,23.72
2018-08-12T09:07:34.883Z,23.87
2018-08-12T09:10:37.212Z,23.28
2018-08-12T09:13:39.458Z,23.58
2018-08-12T09:16:44.126Z,22.97
2018-08-12T09:19:46.629Z,23.58
2018-08-12T09:22:48.916Z,24.36
2018-08-12T09:25:51.258Z,24.72
2018-08-12T09:28:53.740Z,24.33
2018-08-12T09:31:56.123Z,24.64
2018-08-12T09:34:58.489Z,24.19
2018-08-12T09:38:00.787Z,24.32
2018-08-12T09:41:03.070Z,24.30
2018-08-12T09:44:05.551Z,24.92
2018-08-12T09:47:07.820Z,24.70
2018-08-12T09:50:12.083Z,24.16
2018-08-12T09:53:14.320Z,24.25
2018-08-12T09:56:17.423Z,23.97
2018-08-12T09:59:19.709Z,24.43
2018-08-12T10:02:22.053Z,24.87
2018-08-12T10:05:24.382Z,24.75
2018-08-12T10:08:26.827Z,25.53
2018-08-12T10:11:29.255Z,26.33
2018-08-12T10:14:31.507Z,26.60
2018-08-12T10:17:34.116Z,27.34
2018-08-12T10:20:36.463Z,27.61
2018-08-12T10:23:38.739Z,27.60
2018-08-12T10:26:45.889Z,27.40
2018-08-12T10:29:48.287Z,26.55
2018-08-12T10:32:50.757Z,26.63
2018-08-12T10:35:53.080Z,26.71
2018-08-12T10:38:55.365Z,26.99
2018-08-12T10:41:57.665Z,26.85
2018-08-12T10:45:00.075Z,26.68
2018-08-12T10:48:02.626Z,27.12
2018-08-12T10:51:05.122Z,26.35
2018-08-12T10:54:07.523Z,25.76
2018-08-12T10:57:09.962Z,26.14
2018-08-12T11:00:20.736Z,26.03
2018-08-12T11:03:23.062Z,26.07
2018-08-12T11:06:25.475Z,25.93
2018-08-12T11:09:27.782Z,25.64
2018-08-12T11:12:30.360Z,26.47
2018-08-12T11:15:32.526Z,27.40
2018-08-12T11:18:35.355Z,27.20
2018-08-12T11:21:37.817Z,26.76
2018-08-12T11:24:43.971Z,26.33
2018-08-12T11:27:46.193Z,26.14
2018-08-12T11:30:48.554Z,26.54
2018-08-12T11:33:50.778Z,26.07
2018-08-12T11:36:53.212Z,26.38
2018-08-12T11:39:55.476Z,25.57
2018-08-12T11:42:57.954Z,25.94
2018-08-12T11:46:00.334Z,26.77
2018-08-12T11:49:03.849Z,27.29
2018-08-12T11:52:06.200Z,28.45
2018-08-12T11:55:10.524Z,28.03
2018-08-12T11:58:12.850Z,28.20
2018-08-12T12:01:15.220Z,27.44
2018-08-12T12:04:17.531Z,27.56
2018-08-12T12:07:19.740Z,28.04
2018-08-12T12:10:22.674Z,27.09
2018-08-12T12:13:24.986Z,27.28
2018-08-12T12:16:27.395Z,27.47
2018-08-12T12:19:29.685Z,27.68
2018-08-12T12:22:31.989Z,27.87
2018-08-12T12:25:34.373Z,28.58
2018-08-12T12:28:39.682Z,29.07
2018-08-12T12:31:42.108Z,29.27
2018-08-12T12:34:45.377Z,29.29
2018-08-12T12:37:47.794Z,28.33
2018-08-12T12:40:54.380Z,27.99
2018-08-12T12:46:52.860Z,27.83
2018-08-12T12:49:55.132Z,28.56
2018-08-12T12:52:57.477Z,28.77
2018-08-12T12:55:59.824Z,29.21
2018-08-12T12:59:02.234Z,28.29
2018-08-12T13:02:04.684Z,28.99
2018-08-12T13:05:09.125Z,28.87
2018-08-12T13:08:11.542Z,28.95
2018-08-12T13:11:15.727Z,29.03
2018-08-12T13:14:18.064Z,28.17
2018-08-12T13:17:20.348Z,27.94
2018-08-12T13:20:22.646Z,28.63
2018-08-12T13:23:25.049Z,29.00
2018-08-12T13:26:27.410Z,28.52
2018-08-12T13:29:29.658Z,27.82
2018-08-12T13:32:31.908Z,28.99
2018-08-12T13:35:34.460Z,29.53
2018-08-12T13:38:36.744Z,29.60
2018-08-12T13:41:39.045Z,29.92
2018-08-12T13:44:41.618Z,29.26
2018-08-12T13:47:44.710Z,29.53
2018-08-12T13:50:47.021Z,29.70
2018-08-12T13:53:50.600Z,28.92
2018-08-12T13:56:53.011Z,28.21
2018-08-12T13:59:55.393Z,28.89
2018-08-12T14:02:57.815Z,29.27
2018-08-12T14:06:00.072Z,29.25
2018-08-12T14:09:02.414Z,30.11
2018-08-12T14:12:04.725Z,30.31
2018-08-12T14:15:09.467Z,31.15
2018-08-12T14:18:11.857Z,31.49
2018-08-12T14:25:20.397Z,30.85
2018-08-12T14:28:22.579Z,30.63
2018-08-12T14:31:24.884Z,29.36
2018-08-12T14:34:27.217Z,30.34
2018-08-12T14:37:35.384Z,30.61
2018-08-12T14:40:39.078Z,30.99
2018-08-12T14:43:42.631Z,30.60
2018-08-12T14:46:45.033Z,30.87
2018-08-12T14:49:47.388Z,31.14
2018-08-12T14:52:51.010Z,30.16
2018-08-12T14:55:54.544Z,30.20
2018-08-12T14:58:57.032Z,30.72
2018-08-12T15:02:09.972Z,29.91
2018-08-12T15:05:14.651Z,30.95
2018-08-12T15:08:17.680Z,30.46
2018-08-12T15:11:28.003Z,30.11
2018-08-12T15:14:30.373Z,31.15
2018-08-12T15:17:32.653Z,31.10
2018-08-12T15:20:35.722Z,30.59
2018-08-12T15:23:38.075Z,30.27
2018-08-12T15:26:41.559Z,30.21
2018-08-12T15:29:51.947Z,30.69
2018-08-12T15:32:55.175Z,30.78
2018-08-12T15:35:59.205Z,30.89
2018-08-12T15:39:01.636Z,30.66
2018-08-12T15:42:04.030Z,30.63
2018-08-12T15:45:08.347Z,30.76
2018-08-12T15:48:10.651Z,31.24
2018-08-12T15:51:19.680Z,31.26
2018-08-12T15:54:22.042Z,30.87
2018-08-12T15:57:24.328Z,30.66
2018-08-12T16:00:26.601Z,30.39
2018-08-12T16:03:29.028Z,30.33
2018-08-12T16:06:31.259Z,30.18
2018-08-12T16:09:34.151Z,29.71
2018-08-12T16:12:36.624Z,29.06
2018-08-12T16:15:38.837Z,29.11
2018-08-12T16:18:41.318Z,29.28
2018-08-12T16:21:43.671Z,29.62
2018-08-12T16:24:46.053Z,29.77
2018-08-12T16:27:48.979Z,29.85
2018-08-12T16:30:51.330Z,29.55
2018-08-12T16:33:55.530Z,29.33
2018-08-12T16:37:07.333Z,28.99
2018-08-12T16:40:11.615Z,28.35
2018-08-12T16:43:13.936Z,27.89
2018-08-12T16:46:16.255Z,27.76
2018-08-12T16:49:18.547Z,27.77
2018-08-12T16:52:20.895Z,27.69
2018-08-12T16:55:23.169Z,27.95
2018-08-12T16:58:25.380Z,28.19
2018-08-12T17:01:27.733Z,28.74
2018-08-12T17:04:30.025Z,28.93
2018-08-12T17:07:32.354Z,28.94
2018-08-12T17:10:34.618Z,28.55
2018-08-12T17:13:36.805Z,28.09
2018-08-12T17:16:39.014Z,27.79
2018-08-12T17:19:41.361Z,27.64
2018-08-12T17:22:44.245Z,27.47
2018-08-12T17:25:46.646Z,27.49
2018-08-12T17:28:48.785Z,28.45
2018-08-12T17:31:51.054Z,28.55
2018-08-12T17:34:53.244Z,28.02
2018-08-12T17:37:56.437Z,27.44
2018-08-12T17:40:58.910Z,26.97
2018-08-12T17:44:01.200Z,26.44
2018-08-12T17:47:03.485Z,26.10
2018-08-12T17:50:06.406Z,25.91
2018-08-12T17:53:08.636Z,25.58
2018-08-12T17:56:10.996Z,25.33
2018-08-12T17:59:13.250Z,25.09
2018-08-12T18:02:15.455Z,24.88
2018-08-12T18:05:17.861Z,24.69
2018-08-12T18:08:20.145Z,24.50
2018-08-12T18:11:22.433Z,24.38
2018-08-12T18:14:25.726Z,24.38
2018-08-12T18:17:28.127Z,24.67
2018-08-12T18:20:31.517Z,25.21
2018-08-12T18:23:33.874Z,25.68
2018-08-12T18:26:36.283Z,25.79
2018-08-12T18:29:38.816Z,25.68
2018-08-12T18:32:41.246Z,25.28
2018-08-12T18:35:43.535Z,24.77
2018-08-12T18:38:46.750Z,24.32
2018-08-12T18:41:49.101Z,23.81
2018-08-12T18:44:52.209Z,23.37
2018-08-12T18:47:54.551Z,22.95
2018-08-12T18:50:56.944Z,22.60
2018-08-12T18:53:59.318Z,22.28
2018-08-12T18:57:02.930Z,21.98
2018-08-12T19:00:06.983Z,21.70
2018-08-12T19:03:09.346Z,21.41
2018-08-12T19:06:11.678Z,21.18
2018-08-12T19:09:13.977Z,20.97
2018-08-12T19:12:16.254Z,20.77
2018-08-12T19:15:20.283Z,20.54
2018-08-12T19:18:22.619Z,20.34
2018-08-12T19:21:24.996Z,20.22
2018-08-12T19:24:27.265Z,20.04
2018-08-12T19:27:29.686Z,19.75
2018-08-12T19:30:31.860Z,19.53
2018-08-12T19:33:34.133Z,19.36
2018-08-12T19:36:36.393Z,19.18
2018-08-12T19:39:38.633Z,19.02
2018-08-12T19:42:41.101Z,18.84
2018-08-12T19:45:43.374Z,18.76
2018-08-12T19:48:45.744Z,18.75
2018-08-12T19:51:48.074Z,18.69
2018-08-12T19:54:50.445Z,18.41
2018-08-12T19:57:53.447Z,18.13
2018-08-12T20:00:55.688Z,17.84
2018-08-12T20:03:57.964Z,17.69
2018-08-12T20:07:00.613Z,17.56
2018-08-12T20:10:03.237Z,17.50
2018-08-12T20:13:05.813Z,17.45
2018-08-12T20:16:08.366Z,17.33
2018-08-12T20:19:10.806Z,17.37
2018-08-12T20:22:14.902Z,17.38
2018-08-12T20:25:17.179Z,17.34
2018-08-12T20:28:19.499Z,17.15
2018-08-12T20:31:21.894Z,17.02
2018-08-12T20:34:24.196Z,16.94
2018-08-12T20:37:26.851Z,16.91
2018-08-12T20:40:29.277Z,16.84
2018-08-12T20:43:31.550Z,16.73
2018-08-12T20:46:33.801Z,16.60
2018-08-12T20:49:36.152Z,16.45
2018-08-12T20:52:38.333Z,16.35
2018-08-12T20:55:40.645Z,16.26
2018-08-12T20:58:43.102Z,16.25
2018-08-12T21:01:45.372Z,16.25
2018-08-12T21:04:47.577Z,16.28
2018-08-12T21:07:49.867Z,16.25
2018-08-12T21:10:53.852Z,16.14
2018-08-12T21:13:56.146Z,16.05
2018-08-12T21:16:58.526Z,16.02
2018-08-12T21:20:00.820Z,15.92
2018-08-12T21:23:03.296Z,15.80
2018-08-12T21:26:05.623Z,15.71
2018-08-12T21:29:09.605Z,15.61
2018-08-12T21:32:11.904Z,15.60
2018-08-12T21:35:14.210Z,15.58
2018-08-12T21:38:16.492Z,15.50
2018-08-12T21:41:18.736Z,15.45
2018-08-12T21:44:21.031Z,15.38
2018-08-12T21:47:23.333Z,15.36
2018-08-12T21:50:25.681Z,15.34
2018-08-12T21:53:28.024Z,15.27
2018-08-12T21:56:30.298Z,15.12
2018-08-12T21:59:32.565Z,15.04
2018-08-12T22:02:34.866Z,15.05
2018-08-12T22:05:38.122Z,15.09
2018-08-12T22:08:40.431Z,15.00
2018-08-12T22:11:42.692Z,14.81
2018-08-12T22:14:44.984Z,14.73
2018-08-12T22:17:47.264Z,14.71
2018-08-12T22:20:49.528Z,14.68
2018-08-12T22:23:51.860Z,14.57
2018-08-12T22:26:54.103Z,14.44
2018-08-12T22:29:56.350Z,14.41
2018-08-12T22:32:58.713Z,14.48
2018-08-12T22:36:00.962Z,14.49
2018-08-12T22:39:05.009Z,14.51
2018-08-12T22:42:07.291Z,14.46
2018-08-12T22:45:10.757Z,14.46
2018-08-12T22:48:13.036Z,14.50
2018-08-12T22:51:15.356Z,14.57
2018-08-12T22:54:17.608Z,14.59
2018-08-12T22:57:19.964Z,14.53
2018-08-12T23:00:22.217Z,14.45
2018-08-12T23:03:24.538Z,14.26
2018-08-12T23:06:26.870Z,14.23
2018-08-12T23:09:29.821Z,14.16
2018-08-12T23:12:32.113Z,14.11
2018-08-12T23:16:11.580Z,13.83
2018-08-12T23:19:13.968Z,13.79
2018-08-12T23:22:16.229Z,13.86
2018-08-12T23:25:19.545Z,13.93
2018-08-12T23:28:21.765Z,13.97
2018-08-12T23:31:24.098Z,13.99
2018-08-12T23:34:26.484Z,13.93
2018-08-12T23:37:28.836Z,13.89
2018-08-12T23:40:31.114Z,13.87
2018-08-12T23:43:33.417Z,13.87
2018-08-12T23:46:35.709Z,13.85
2018-08-12T23:49:38.014Z,13.82
2018-08-12T23:52:40.236Z,13.75
2018-08-12T23:55:42.680Z,13.71
2018-08-12T23:58:45.034Z,13.63
